Hlavní strana
METAR-TAF:

METAR-TAF

Letiště :

Johannesburg, Jihoafrická republika

zeměpisná šířka: 26-09S, zeměpisná délka: 28-00E, výška: 1626 m

Aktuální stav počasí

Zpráva byla vytvořena před 47 minutami, v 18:00 UTC
Bezvětří
Teplota 14°C
Vlhkost vzduchu 55%
Tlak 1027 hPa

METAR: FAJB 231800Z AUTO 00000KT //// // ////// 14/05 Q1027

Čas: 20:47 (18:47 UTC)


TAF: chybějící

Stav a předpovědi počasí z více než 4 000 letišť (zprávy METAR a TAF).

Červené a žluté tečky na mapě představují dostupné meteorologické stanice.

Když kurzor umístíte na tečku, zobrazí se název stanice.

Pak kliknutím zobrazíte stav a předpověď počasí.

Chcete-li změnit mapu, kliknutím na zelené tlačítko se znaménkem +mapu přiblížíte, kliknutím na zelené tlačítko se znaménkem – mapu oddálíte a kliknutím na zelené šipky přejdete na sousední mapy.


METAR-TAF: